sensor_id;sensor_type;location;lat;lon;timestamp;temperature;humidity
6863;DHT22;3470;48.738;9.616;2023-09-08T12:31:01;47.60;44.80
6863;DHT22;3470;48.738;9.616;2023-09-08T12:33:27;46.40;44.80
6863;DHT22;3470;48.738;9.616;2023-09-08T12:35:52;46.10;46.30
6863;DHT22;3470;48.738;9.616;2023-09-08T12:38:19;46.00;45.70
6863;DHT22;3470;48.738;9.616;2023-09-08T12:40:44;48.10;44.10
6863;DHT22;3470;48.738;9.616;2023-09-08T12:43:10;47.60;43.70
6863;DHT22;3470;48.738;9.616;2023-09-08T12:45:36;48.00;44.10
6863;DHT22;3470;48.738;9.616;2023-09-08T12:48:02;47.10;43.80
6863;DHT22;3470;48.738;9.616;2023-09-08T12:50:29;45.70;44.70
6863;DHT22;3470;48.738;9.616;2023-09-08T12:52:54;45.10;46.20
6863;DHT22;3470;48.738;9.616;2023-09-08T17:11:05;28.60;79.60
6863;DHT22;3470;48.738;9.616;2023-09-08T17:13:31;28.10;81.00
6863;DHT22;3470;48.738;9.616;2023-09-08T17:15:57;27.80;81.70
6863;DHT22;3470;48.738;9.616;2023-09-08T17:18:23;27.70;82.40
6863;DHT22;3470;48.738;9.616;2023-09-08T17:20:50;27.40;83.20
6863;DHT22;3470;48.738;9.616;2023-09-08T17:23:16;27.30;84.10
6863;DHT22;3470;48.738;9.616;2023-09-08T17:25:43;27.10;85.00
6863;DHT22;3470;48.738;9.616;2023-09-08T17:28:09;26.90;85.90
6863;DHT22;3470;48.738;9.616;2023-09-08T17:30:35;26.70;86.70
6863;DHT22;3470;48.738;9.616;2023-09-08T17:33:00;26.60;87.20
6863;DHT22;3470;48.738;9.616;2023-09-08T17:35:26;26.40;87.90
6863;DHT22;3470;48.738;9.616;2023-09-08T17:37:52;26.20;88.30
6863;DHT22;3470;48.738;9.616;2023-09-08T17:40:17;26.10;89.00
6863;DHT22;3470;48.738;9.616;2023-09-08T17:42:43;26.00;89.70
6863;DHT22;3470;48.738;9.616;2023-09-08T17:45:09;25.80;90.10
6863;DHT22;3470;48.738;9.616;2023-09-08T17:47:35;25.60;90.30
6863;DHT22;3470;48.738;9.616;2023-09-08T17:50:01;25.40;90.60
6863;DHT22;3470;48.738;9.616;2023-09-08T17:52:26;25.30;91.00
6863;DHT22;3470;48.738;9.616;2023-09-08T17:54:52;25.10;91.30
6863;DHT22;3470;48.738;9.616;2023-09-08T17:57:17;24.90;91.40
6863;DHT22;3470;48.738;9.616;2023-09-08T17:59:43;24.80;91.50
6863;DHT22;3470;48.738;9.616;2023-09-08T18:02:08;24.70;91.80
6863;DHT22;3470;48.738;9.616;2023-09-08T18:04:34;24.50;92.00
6863;DHT22;3470;48.738;9.616;2023-09-08T18:07:00;24.40;92.20
6863;DHT22;3470;48.738;9.616;2023-09-08T18:09:26;24.30;92.10
6863;DHT22;3470;48.738;9.616;2023-09-08T18:11:52;24.10;92.40
6863;DHT22;3470;48.738;9.616;2023-09-08T18:14:18;24.10;92.50
6863;DHT22;3470;48.738;9.616;2023-09-08T18:16:43;24.00;92.60
6863;DHT22;3470;48.738;9.616;2023-09-08T18:19:09;23.90;92.60
6863;DHT22;3470;48.738;9.616;2023-09-08T18:21:34;23.80;92.40
6863;DHT22;3470;48.738;9.616;2023-09-08T18:24:00;23.70;92.20
6863;DHT22;3470;48.738;9.616;2023-09-08T18:26:25;23.70;92.10
6863;DHT22;3470;48.738;9.616;2023-09-08T18:28:51;23.70;92.10
6863;DHT22;3470;48.738;9.616;2023-09-08T18:31:16;23.60;92.10
6863;DHT22;3470;48.738;9.616;2023-09-08T18:33:42;23.60;92.50
6863;DHT22;3470;48.738;9.616;2023-09-08T18:36:08;23.40;92.50
6863;DHT22;3470;48.738;9.616;2023-09-08T18:38:33;23.30;92.90
6863;DHT22;3470;48.738;9.616;2023-09-08T18:40:59;23.10;93.00
6863;DHT22;3470;48.738;9.616;2023-09-08T18:43:25;23.10;93.80
6863;DHT22;3470;48.738;9.616;2023-09-08T18:45:51;22.90;94.00
6863;DHT22;3470;48.738;9.616;2023-09-08T18:48:17;22.80;93.80
6863;DHT22;3470;48.738;9.616;2023-09-08T18:50:42;22.70;93.90
6863;DHT22;3470;48.738;9.616;2023-09-08T18:53:09;22.60;94.60
6863;DHT22;3470;48.738;9.616;2023-09-08T18:55:35;22.50;94.40
6863;DHT22;3470;48.738;9.616;2023-09-08T18:58:00;22.40;94.80
6863;DHT22;3470;48.738;9.616;2023-09-08T19:00:29;22.40;94.70
6863;DHT22;3470;48.738;9.616;2023-09-08T19:02:54;22.40;94.70
6863;DHT22;3470;48.738;9.616;2023-09-08T19:05:20;22.40;94.90
6863;DHT22;3470;48.738;9.616;2023-09-08T19:07:46;22.40;95.00
6863;DHT22;3470;48.738;9.616;2023-09-08T19:10:11;22.30;95.10
6863;DHT22;3470;48.738;9.616;2023-09-08T19:12:37;22.30;95.40
6863;DHT22;3470;48.738;9.616;2023-09-08T19:15:03;22.20;95.60
6863;DHT22;3470;48.738;9.616;2023-09-08T19:17:28;22.10;95.60
6863;DHT22;3470;48.738;9.616;2023-09-08T19:19:54;22.00;95.80
6863;DHT22;3470;48.738;9.616;2023-09-08T19:22:19;21.90;96.20
6863;DHT22;3470;48.738;9.616;2023-09-08T19:24:45;21.80;96.30
6863;DHT22;3470;48.738;9.616;2023-09-08T19:27:10;21.80;96.30
6863;DHT22;3470;48.738;9.616;2023-09-08T19:29:38;21.70;96.40
6863;DHT22;3470;48.738;9.616;2023-09-08T19:32:04;21.70;96.50
6863;DHT22;3470;48.738;9.616;2023-09-08T19:34:30;21.60;96.60
6863;DHT22;3470;48.738;9.616;2023-09-08T19:36:56;21.50;96.90
6863;DHT22;3470;48.738;9.616;2023-09-08T19:39:22;21.40;97.10
6863;DHT22;3470;48.738;9.616;2023-09-08T19:41:47;21.30;97.20
6863;DHT22;3470;48.738;9.616;2023-09-08T19:44:13;21.30;97.30
6863;DHT22;3470;48.738;9.616;2023-09-08T19:46:38;21.30;97.70
6863;DHT22;3470;48.738;9.616;2023-09-08T19:49:04;21.20;97.30
6863;DHT22;3470;48.738;9.616;2023-09-08T19:51:30;21.20;97.60
6863;DHT22;3470;48.738;9.616;2023-09-08T19:53:55;21.10;97.60
6863;DHT22;3470;48.738;9.616;2023-09-08T19:56:21;21.00;98.00
6863;DHT22;3470;48.738;9.616;2023-09-08T19:58:46;21.00;98.30
6863;DHT22;3470;48.738;9.616;2023-09-08T20:01:16;21.00;98.60
6863;DHT22;3470;48.738;9.616;2023-09-08T20:03:42;20.90;98.50
6863;DHT22;3470;48.738;9.616;2023-09-08T20:06:15;20.80;98.50
6863;DHT22;3470;48.738;9.616;2023-09-08T20:08:42;20.70;98.70
6863;DHT22;3470;48.738;9.616;2023-09-08T20:11:08;20.70;98.60
6863;DHT22;3470;48.738;9.616;2023-09-08T20:13:33;20.70;98.60
6863;DHT22;3470;48.738;9.616;2023-09-08T20:16:03;20.70;98.60
6863;DHT22;3470;48.738;9.616;2023-09-08T20:18:31;20.70;98.60
6863;DHT22;3470;48.738;9.616;2023-09-08T20:20:59;20.70;98.70
6863;DHT22;3470;48.738;9.616;2023-09-08T20:23:27;20.70;98.60
6863;DHT22;3470;48.738;9.616;2023-09-08T20:25:53;20.70;98.80
6863;DHT22;3470;48.738;9.616;2023-09-08T20:28:19;20.70;98.80
6863;DHT22;3470;48.738;9.616;2023-09-08T20:30:44;20.70;98.70
6863;DHT22;3470;48.738;9.616;2023-09-08T20:33:10;20.70;98.80
6863;DHT22;3470;48.738;9.616;2023-09-08T20:35:37;20.70;98.70
6863;DHT22;3470;48.738;9.616;2023-09-08T20:38:04;20.70;98.60
6863;DHT22;3470;48.738;9.616;2023-09-08T20:40:30;20.70;98.80
6863;DHT22;3470;48.738;9.616;2023-09-08T20:42:56;20.60;98.90
6863;DHT22;3470;48.738;9.616;2023-09-08T20:45:21;20.50;99.20
6863;DHT22;3470;48.738;9.616;2023-09-08T20:47:47;20.30;99.40
6863;DHT22;3470;48.738;9.616;2023-09-08T20:50:15;20.20;99.60
6863;DHT22;3470;48.738;9.616;2023-09-08T20:52:40;20.10;99.90
6863;DHT22;3470;48.738;9.616;2023-09-08T20:55:08;20.00;99.90
6863;DHT22;3470;48.738;9.616;2023-09-08T20:57:34;19.90;99.90
6863;DHT22;3470;48.738;9.616;2023-09-08T21:00:00;19.90;99.90
6863;DHT22;3470;48.738;9.616;2023-09-08T21:02:25;19.80;99.90
6863;DHT22;3470;48.738;9.616;2023-09-08T21:04:51;19.80;99.90
6863;DHT22;3470;48.738;9.616;2023-09-08T21:07:17;19.80;99.90
6863;DHT22;3470;48.738;9.616;2023-09-08T21:09:42;19.80;99.90
6863;DHT22;3470;48.738;9.616;2023-09-08T21:12:08;19.80;99.90
6863;DHT22;3470;48.738;9.616;2023-09-08T21:14:33;19.70;99.90
6863;DHT22;3470;48.738;9.616;2023-09-08T21:16:59;19.70;99.90
6863;DHT22;3470;48.738;9.616;2023-09-08T21:19:24;19.60;99.90
6863;DHT22;3470;48.738;9.616;2023-09-08T21:21:51;19.60;99.90
6863;DHT22;3470;48.738;9.616;2023-09-08T21:24:17;19.60;99.90
6863;DHT22;3470;48.738;9.616;2023-09-08T21:26:44;19.50;99.90
6863;DHT22;3470;48.738;9.616;2023-09-08T21:29:10;19.40;99.90
6863;DHT22;3470;48.738;9.616;2023-09-08T21:31:35;19.40;99.90
6863;DHT22;3470;48.738;9.616;2023-09-08T21:34:01;19.30;99.90
6863;DHT22;3470;48.738;9.616;2023-09-08T21:36:26;19.30;99.90
6863;DHT22;3470;48.738;9.616;2023-09-08T21:38:52;19.20;99.90
6863;DHT22;3470;48.738;9.616;2023-09-08T21:41:18;19.20;99.90
6863;DHT22;3470;48.738;9.616;2023-09-08T21:43:43;19.10;99.90
6863;DHT22;3470;48.738;9.616;2023-09-08T21:46:09;19.20;99.90
6863;DHT22;3470;48.738;9.616;2023-09-08T21:48:35;19.10;99.90
6863;DHT22;3470;48.738;9.616;2023-09-08T21:51:00;19.10;99.90
6863;DHT22;3470;48.738;9.616;2023-09-08T21:53:26;19.10;99.90
6863;DHT22;3470;48.738;9.616;2023-09-08T21:55:52;19.10;99.90
6863;DHT22;3470;48.738;9.616;2023-09-08T21:58:17;19.10;99.90
6863;DHT22;3470;48.738;9.616;2023-09-08T22:00:43;19.10;99.90
6863;DHT22;3470;48.738;9.616;2023-09-08T22:03:09;19.00;99.90
6863;DHT22;3470;48.738;9.616;2023-09-08T22:05:35;19.10;99.90
6863;DHT22;3470;48.738;9.616;2023-09-08T22:08:01;19.10;99.90
6863;DHT22;3470;48.738;9.616;2023-09-08T22:10:28;19.10;99.90
6863;DHT22;3470;48.738;9.616;2023-09-08T22:12:53;19.00;99.90
6863;DHT22;3470;48.738;9.616;2023-09-08T22:15:19;19.00;99.90
6863;DHT22;3470;48.738;9.616;2023-09-08T22:17:45;18.90;99.90
6863;DHT22;3470;48.738;9.616;2023-09-08T22:20:12;18.90;99.90
6863;DHT22;3470;48.738;9.616;2023-09-08T22:22:42;18.80;99.90
6863;DHT22;3470;48.738;9.616;2023-09-08T22:25:11;18.90;99.90
6863;DHT22;3470;48.738;9.616;2023-09-08T22:27:37;18.90;99.90
6863;DHT22;3470;48.738;9.616;2023-09-08T22:30:04;19.00;99.90
6863;DHT22;3470;48.738;9.616;2023-09-08T22:32:30;18.90;99.90
6863;DHT22;3470;48.738;9.616;2023-09-08T22:34:56;18.90;99.90
6863;DHT22;3470;48.738;9.616;2023-09-08T22:37:21;18.80;99.90
6863;DHT22;3470;48.738;9.616;2023-09-08T22:39:47;18.80;99.90
6863;DHT22;3470;48.738;9.616;2023-09-08T22:42:12;18.70;99.90
6863;DHT22;3470;48.738;9.616;2023-09-08T22:44:38;18.60;99.90
6863;DHT22;3470;48.738;9.616;2023-09-08T22:47:04;18.60;99.90
6863;DHT22;3470;48.738;9.616;2023-09-08T22:49:35;18.70;99.90
6863;DHT22;3470;48.738;9.616;2023-09-08T22:52:18;18.70;99.90
6863;DHT22;3470;48.738;9.616;2023-09-08T22:54:45;18.70;99.90
6863;DHT22;3470;48.738;9.616;2023-09-08T22:57:11;18.70;99.90
6863;DHT22;3470;48.738;9.616;2023-09-08T22:59:57;18.60;99.90
